createdAt,value
2019-04-03T00:01:10.581Z,3.37
2019-04-03T00:03:39.969Z,3.50
2019-04-03T00:06:09.349Z,3.80
2019-04-03T00:08:38.674Z,2.90
2019-04-03T00:11:09.429Z,3.47
2019-04-03T00:13:41.521Z,3.67
2019-04-03T00:16:10.320Z,3.77
2019-04-03T00:18:39.729Z,3.23
2019-04-03T00:21:09.120Z,3.63
2019-04-03T00:23:38.520Z,3.53
2019-04-03T00:26:07.974Z,4.37
2019-04-03T00:28:37.688Z,2.73
2019-04-03T00:31:07.169Z,3.93
2019-04-03T00:33:36.687Z,3.53
2019-04-03T00:36:06.119Z,3.83
2019-04-03T00:38:35.596Z,3.40
2019-04-03T00:41:04.961Z,3.60
2019-04-03T00:43:34.327Z,3.23
2019-04-03T00:46:03.745Z,3.63
2019-04-03T00:48:33.225Z,3.83
2019-04-03T00:51:02.563Z,4.10
2019-04-03T00:53:31.999Z,3.37
2019-04-03T00:56:01.469Z,2.77
2019-04-03T00:58:37.135Z,3.90
2019-04-03T01:01:08.502Z,3.23
2019-04-03T01:03:38.046Z,3.60
2019-04-03T01:06:08.738Z,3.70
2019-04-03T01:08:38.225Z,2.93
2019-04-03T01:11:08.040Z,4.77
2019-04-03T01:13:37.398Z,3.53
2019-04-03T01:16:07.132Z,3.17
2019-04-03T01:18:36.473Z,4.90
2019-04-03T01:21:06.858Z,3.30
2019-04-03T01:23:37.998Z,4.03
2019-04-03T01:26:09.529Z,3.70
2019-04-03T01:28:41.469Z,4.93
2019-04-03T01:31:09.742Z,3.73
2019-04-03T01:33:39.088Z,4.27
2019-04-03T01:36:08.536Z,3.53
2019-04-03T01:38:37.979Z,4.47
2019-04-03T01:41:07.336Z,4.17
2019-04-03T01:43:36.760Z,4.37
2019-04-03T01:46:06.119Z,3.27
2019-04-03T01:48:35.496Z,4.37
2019-04-03T01:51:07.555Z,3.67
2019-04-03T01:53:37.027Z,3.90
2019-04-03T01:56:06.510Z,3.60
2019-04-03T01:58:36.505Z,3.67
2019-04-03T02:01:07.832Z,3.83
2019-04-03T02:03:37.386Z,3.07
2019-04-03T02:06:06.878Z,3.47
2019-04-03T02:08:36.591Z,4.53
2019-04-03T02:11:06.327Z,3.83
2019-04-03T02:13:35.893Z,4.23
2019-04-03T02:16:05.241Z,4.03
2019-04-03T02:18:34.608Z,4.33
2019-04-03T02:21:04.188Z,3.93
2019-04-03T02:23:33.659Z,3.57
2019-04-03T02:26:03.109Z,3.50
2019-04-03T02:28:34.214Z,3.50
2019-04-03T02:31:04.226Z,4.43
2019-04-03T02:33:33.960Z,3.83
2019-04-03T02:36:03.491Z,3.73
2019-04-03T02:38:33.117Z,3.80
2019-04-03T02:41:04.052Z,3.77
2019-04-03T02:43:33.820Z,5.23
2019-04-03T02:46:03.484Z,4.20
2019-04-03T02:48:33.117Z,4.70
2019-04-03T02:51:02.931Z,3.73
2019-04-03T02:53:32.578Z,4.30
2019-04-03T02:56:02.873Z,4.87
2019-04-03T02:58:32.281Z,3.50
2019-04-03T03:01:05.645Z,3.23
2019-04-03T03:03:33.972Z,5.27
2019-04-03T03:06:03.417Z,4.17
2019-04-03T03:08:33.162Z,4.80
2019-04-03T03:11:04.547Z,3.17
2019-04-03T03:13:35.780Z,4.43
2019-04-03T03:16:05.501Z,4.43
2019-04-03T03:18:35.001Z,4.70
2019-04-03T03:21:07.365Z,3.63
2019-04-03T03:23:37.357Z,4.40
2019-04-03T03:26:07.737Z,4.57
2019-04-03T03:28:37.298Z,4.53
2019-04-03T03:31:08.019Z,3.53
2019-04-03T03:33:41.159Z,4.33
2019-04-03T03:36:10.195Z,3.40
2019-04-03T03:38:40.962Z,3.70
2019-04-03T03:41:10.792Z,4.87
2019-04-03T03:43:40.963Z,4.07
2019-04-03T03:46:11.436Z,4.87
2019-04-03T03:48:43.966Z,4.80
2019-04-03T03:51:14.593Z,3.47
2019-04-03T03:53:46.047Z,5.17
2019-04-03T03:56:18.402Z,4.60
2019-04-03T03:58:48.882Z,3.30
2019-04-03T04:01:18.776Z,3.13
2019-04-03T04:03:48.286Z,4.40
2019-04-03T04:06:18.026Z,3.70
2019-04-03T04:08:47.540Z,4.27
2019-04-03T04:11:17.061Z,4.90
2019-04-03T04:13:48.776Z,3.63
2019-04-03T04:16:17.679Z,3.50
2019-04-03T04:18:47.117Z,3.50
2019-04-03T04:21:16.797Z,4.77
2019-04-03T04:23:46.510Z,3.83
2019-04-03T04:26:15.896Z,3.93
2019-04-03T04:28:45.262Z,4.10
2019-04-03T04:31:14.564Z,4.23
2019-04-03T04:33:43.916Z,3.90
2019-04-03T04:36:13.251Z,4.53
2019-04-03T04:38:42.877Z,3.53
2019-04-03T04:41:12.433Z,3.37
2019-04-03T04:43:42.027Z,3.07
2019-04-03T04:46:13.347Z,3.40
2019-04-03T04:48:42.590Z,3.57
2019-04-03T04:51:11.997Z,4.83
2019-04-03T04:53:41.408Z,4.97
2019-04-03T04:56:10.831Z,4.17
2019-04-03T04:58:42.731Z,3.63
2019-04-03T05:01:11.466Z,5.00
2019-04-03T05:03:41.034Z,3.50
2019-04-03T05:06:10.532Z,4.50
2019-04-03T05:08:40.838Z,4.73
2019-04-03T05:11:10.457Z,4.10
2019-04-03T05:13:40.094Z,4.73
2019-04-03T05:16:10.367Z,5.00
2019-04-03T05:18:39.806Z,4.57
2019-04-03T05:21:09.260Z,4.10
2019-04-03T05:23:38.694Z,3.40
2019-04-03T05:26:08.110Z,4.30
2019-04-03T05:28:37.447Z,4.73
2019-04-03T05:31:08.138Z,4.43
2019-04-03T05:33:37.986Z,5.17
2019-04-03T05:36:07.472Z,3.37
2019-04-03T05:38:38.039Z,4.33
2019-04-03T05:41:08.021Z,4.40
2019-04-03T05:43:38.128Z,3.73
2019-04-03T05:46:07.538Z,3.60
2019-04-03T05:48:36.998Z,4.53
2019-04-03T05:51:06.505Z,3.90
2019-04-03T05:53:37.201Z,4.03
2019-04-03T05:56:06.904Z,4.20
2019-04-03T05:58:36.392Z,4.70
2019-04-03T06:01:06.891Z,4.60
2019-04-03T06:03:43.894Z,3.80
2019-04-03T06:06:08.975Z,4.13
2019-04-03T06:08:38.405Z,3.67
2019-04-03T06:11:09.210Z,4.50
2019-04-03T06:13:38.870Z,4.03
2019-04-03T06:16:08.237Z,4.87
2019-04-03T06:18:37.692Z,3.23
2019-04-03T06:21:07.212Z,4.37
2019-04-03T06:23:36.790Z,5.13
2019-04-03T06:26:06.193Z,4.83
2019-04-03T06:28:35.656Z,4.50
2019-04-03T06:31:07.966Z,4.50
2019-04-03T06:33:36.677Z,4.63
2019-04-03T06:36:06.385Z,4.57
2019-04-03T06:38:35.913Z,4.40
2019-04-03T06:41:08.039Z,5.33
2019-04-03T06:43:36.420Z,5.53
2019-04-03T06:46:05.867Z,4.60
2019-04-03T06:48:36.514Z,4.10
2019-04-03T06:51:06.926Z,4.50
2019-04-03T06:53:36.399Z,4.43
2019-04-03T06:56:07.664Z,5.20
2019-04-03T06:58:38.618Z,5.77
2019-04-03T07:01:07.930Z,5.03
2019-04-03T07:03:37.266Z,4.60
2019-04-03T07:06:06.651Z,4.97
2019-04-03T07:08:38.071Z,5.07
2019-04-03T07:11:07.086Z,4.20
2019-04-03T07:13:36.523Z,4.93
2019-04-03T07:16:06.051Z,4.33
2019-04-03T07:18:36.999Z,4.87
2019-04-03T07:21:06.594Z,4.67
2019-04-03T07:23:35.985Z,5.00
2019-04-03T07:26:05.662Z,5.47
2019-04-03T07:28:35.215Z,4.60
2019-04-03T07:31:04.608Z,4.60
2019-04-03T07:33:34.098Z,4.30
2019-04-03T07:36:03.687Z,5.57
2019-04-03T07:38:33.401Z,4.50
2019-04-03T07:41:02.924Z,4.67
2019-04-03T07:43:32.558Z,5.20
2019-04-03T07:46:03.439Z,5.57
2019-04-03T07:48:33.582Z,4.80
2019-04-03T07:51:03.285Z,4.93
2019-04-03T07:53:32.689Z,4.57
2019-04-03T07:56:02.038Z,4.50
2019-04-03T07:58:32.491Z,5.30
2019-04-03T08:01:02.059Z,5.27
2019-04-03T08:03:31.478Z,4.97
2019-04-03T08:06:02.623Z,5.33
2019-04-03T08:08:31.946Z,6.10
2019-04-03T08:11:01.935Z,4.63
2019-04-03T08:13:32.021Z,4.53
2019-04-03T08:16:01.710Z,4.83
2019-04-03T08:18:31.202Z,6.13
2019-04-03T08:21:01.829Z,5.57
2019-04-03T08:23:37.038Z,5.43
2019-04-03T08:26:06.437Z,4.70
2019-04-03T08:28:36.590Z,4.30
2019-04-03T08:31:06.184Z,5.30
2019-04-03T08:33:35.850Z,5.27
2019-04-03T08:36:07.706Z,4.03
2019-04-03T08:38:36.580Z,5.57
2019-04-03T08:41:06.319Z,5.10
2019-04-03T08:43:35.888Z,5.40
2019-04-03T08:46:05.386Z,5.07
2019-04-03T08:48:35.187Z,5.70
2019-04-03T08:51:06.063Z,6.20
2019-04-03T08:53:38.533Z,5.47
2019-04-03T08:56:06.756Z,4.73
2019-04-03T08:58:36.386Z,5.30
2019-04-03T09:01:05.825Z,4.43
2019-04-03T09:03:35.294Z,5.13
2019-04-03T09:06:04.661Z,5.70
2019-04-03T09:08:34.241Z,5.33
2019-04-03T09:11:05.102Z,4.73
2019-04-03T09:13:34.914Z,5.20
2019-04-03T09:16:04.689Z,5.57
2019-04-03T09:18:34.153Z,5.07
2019-04-03T09:21:03.748Z,5.13
2019-04-03T09:23:33.289Z,5.90
2019-04-03T09:26:03.842Z,5.43
2019-04-03T09:28:33.842Z,5.37
2019-04-03T09:31:03.548Z,5.57
2019-04-03T09:33:32.997Z,5.53
2019-04-03T09:36:04.386Z,5.33
2019-04-03T09:38:35.473Z,4.70
2019-04-03T09:41:04.576Z,4.67
2019-04-03T09:43:34.347Z,6.37
2019-04-03T09:46:03.739Z,5.57
2019-04-03T09:48:33.225Z,5.00
2019-04-03T09:51:02.664Z,5.40
2019-04-03T09:53:32.116Z,5.70
2019-04-03T09:56:01.574Z,5.93
2019-04-03T09:58:30.953Z,5.23
2019-04-03T10:01:00.728Z,5.87
2019-04-03T10:03:31.514Z,5.50
2019-04-03T10:06:02.855Z,4.90
2019-04-03T10:08:32.200Z,5.30
2019-04-03T10:11:03.727Z,4.97
2019-04-03T10:13:33.197Z,6.03
2019-04-03T10:16:04.301Z,5.30
2019-04-03T10:18:33.900Z,5.17
2019-04-03T10:21:03.351Z,5.17
2019-04-03T10:23:32.762Z,5.10
2019-04-03T10:26:03.480Z,6.07
2019-04-03T10:28:32.993Z,4.97
2019-04-03T10:31:02.900Z,5.73
2019-04-03T10:33:32.542Z,4.83
2019-04-03T10:36:03.306Z,5.27
2019-04-03T10:38:32.816Z,5.13
2019-04-03T10:41:03.510Z,4.90
2019-04-03T10:43:33.200Z,5.20
2019-04-03T10:46:03.354Z,5.30
2019-04-03T10:48:32.718Z,5.10
2019-04-03T10:51:03.614Z,6.00
2019-04-03T10:53:33.119Z,5.40
2019-04-03T10:56:03.222Z,5.43
2019-04-03T10:58:32.638Z,5.10
2019-04-03T11:01:03.706Z,5.50
2019-04-03T11:03:33.086Z,4.80
2019-04-03T11:06:03.305Z,4.97
2019-04-03T11:08:32.742Z,5.27
2019-04-03T11:11:04.644Z,5.30
2019-04-03T11:13:34.781Z,4.97
2019-04-03T11:16:04.347Z,6.00
2019-04-03T11:18:33.746Z,4.37
2019-04-03T11:21:03.288Z,5.20
2019-04-03T11:23:38.980Z,5.30
2019-04-03T11:26:05.887Z,6.07
2019-04-03T11:28:37.861Z,5.03
2019-04-03T11:31:06.405Z,4.60
2019-04-03T11:33:35.847Z,5.90
2019-04-03T11:36:05.472Z,6.13
2019-04-03T11:38:34.837Z,6.17
2019-04-03T11:41:13.129Z,5.67
2019-04-03T11:43:38.648Z,5.00
2019-04-03T11:46:08.323Z,4.93
2019-04-03T11:48:37.995Z,5.30
2019-04-03T11:51:07.659Z,5.50
2019-04-03T11:53:37.070Z,5.43
2019-04-03T11:56:06.479Z,4.67
2019-04-03T11:58:35.886Z,4.63
2019-04-03T12:01:06.585Z,4.90
2019-04-03T12:03:36.383Z,5.37
2019-04-03T12:06:06.039Z,4.43
2019-04-03T12:08:35.405Z,5.67
2019-04-03T12:11:06.076Z,3.83
2019-04-03T12:13:36.546Z,4.73
2019-04-03T12:16:06.243Z,4.83
2019-04-03T12:18:35.676Z,5.10
2019-04-03T12:21:05.106Z,5.00
2019-04-03T12:23:34.582Z,4.97
2019-04-03T12:26:04.110Z,5.13
2019-04-03T12:28:33.582Z,5.40
2019-04-03T12:33:46.656Z,4.17
2019-04-03T12:36:11.087Z,4.27
2019-04-03T12:38:40.879Z,4.73
2019-04-03T12:41:12.720Z,4.90
2019-04-03T12:43:42.180Z,5.07
2019-04-03T12:46:11.916Z,5.60
2019-04-03T12:48:41.422Z,4.77
2019-04-03T12:51:11.084Z,4.70
2019-04-03T12:53:40.630Z,5.37
2019-04-03T12:56:10.155Z,4.83
2019-04-03T12:58:39.612Z,5.10
2019-04-03T13:01:11.358Z,4.53
2019-04-03T13:03:40.697Z,4.10
2019-04-03T13:06:10.866Z,5.70
2019-04-03T13:08:40.615Z,4.60
2019-04-03T13:11:10.449Z,4.77
2019-04-03T13:13:40.094Z,4.73
2019-04-03T13:16:10.932Z,4.27
2019-04-03T13:18:40.812Z,5.83
2019-04-03T13:21:10.590Z,4.90
2019-04-03T13:23:40.417Z,4.90
2019-04-03T13:26:09.893Z,4.37
2019-04-03T13:28:40.754Z,4.13
2019-04-03T13:31:10.917Z,4.70
2019-04-03T13:33:40.910Z,3.93
2019-04-03T13:36:10.626Z,5.00
2019-04-03T13:38:40.216Z,5.03
2019-04-03T13:41:10.252Z,5.10
2019-04-03T13:43:40.634Z,4.70
2019-04-03T13:46:10.087Z,5.10
2019-04-03T13:48:39.698Z,5.27
2019-04-03T13:51:12.200Z,5.17
2019-04-03T13:53:40.354Z,4.03
2019-04-03T13:56:11.188Z,4.87
2019-04-03T13:58:40.871Z,4.00
2019-04-03T14:01:10.325Z,4.77
2019-04-03T14:03:39.658Z,4.17
2019-04-03T14:06:09.134Z,4.67
2019-04-03T14:08:38.813Z,4.30
2019-04-03T14:11:08.435Z,4.30
2019-04-03T14:13:37.999Z,4.53
2019-04-03T14:16:19.034Z,5.40
2019-04-03T14:18:40.214Z,4.57
2019-04-03T14:21:09.576Z,4.27
2019-04-03T14:23:40.996Z,5.00
2019-04-03T14:26:12.948Z,5.27
2019-04-03T14:28:42.059Z,4.77
2019-04-03T14:31:11.950Z,4.37
2019-04-03T14:33:45.145Z,4.73
2019-04-03T14:36:12.451Z,5.03
2019-04-03T14:38:42.172Z,4.83
2019-04-03T14:41:11.881Z,4.67
2019-04-03T14:43:41.625Z,4.37
2019-04-03T14:46:11.082Z,4.70
2019-04-03T14:48:40.487Z,4.63
2019-04-03T14:51:11.359Z,4.07
2019-04-03T14:53:41.669Z,4.47
2019-04-03T14:56:10.999Z,3.63
2019-04-03T14:58:40.360Z,3.10
2019-04-03T15:01:09.784Z,3.27
2019-04-03T15:03:39.225Z,3.10
2019-04-03T15:06:08.569Z,3.60
2019-04-03T15:08:38.334Z,2.33
2019-04-03T15:11:07.765Z,2.43
2019-04-03T15:13:37.660Z,2.87
2019-04-03T15:16:07.669Z,2.80
2019-04-03T15:18:37.203Z,2.77
2019-04-03T15:21:06.708Z,3.50
2019-04-03T15:23:40.775Z,3.00
2019-04-03T15:26:08.098Z,2.90
2019-04-03T15:28:38.561Z,2.73
2019-04-03T15:31:07.901Z,3.03
2019-04-03T15:33:37.354Z,2.83
2019-04-03T15:36:06.842Z,3.43
2019-04-03T15:38:36.226Z,3.33
2019-04-03T15:41:05.798Z,3.30
2019-04-03T15:43:35.306Z,3.30
2019-04-03T15:46:04.890Z,3.03
2019-04-03T15:48:35.642Z,2.93
2019-04-03T15:51:07.089Z,2.80
2019-04-03T15:53:37.219Z,2.83
2019-04-03T15:56:06.695Z,2.80
2019-04-03T15:58:36.293Z,2.83
2019-04-03T16:01:08.347Z,2.87
2019-04-03T16:03:37.007Z,2.80
2019-04-03T16:06:06.434Z,2.80
2019-04-03T16:08:35.875Z,2.97
2019-04-03T16:11:07.101Z,2.57
2019-04-03T16:13:36.552Z,3.20
2019-04-03T16:16:06.115Z,2.50
2019-04-03T16:18:37.883Z,2.73
2019-04-03T16:21:06.688Z,2.40
2019-04-03T16:23:37.424Z,2.30
2019-04-03T16:26:07.199Z,2.27
2019-04-03T16:28:37.113Z,2.57
2019-04-03T16:31:06.557Z,2.20
2019-04-03T16:33:36.949Z,2.80
2019-04-03T16:36:07.033Z,2.57
2019-04-03T16:38:36.523Z,2.40
2019-04-03T16:41:07.921Z,2.97
2019-04-03T16:43:37.968Z,2.13
2019-04-03T16:46:09.885Z,2.40
2019-04-03T16:48:39.239Z,2.50
2019-04-03T16:51:10.029Z,2.37
2019-04-03T16:53:40.106Z,2.53
2019-04-03T16:56:09.557Z,2.67
2019-04-03T16:58:39.489Z,2.07
2019-04-03T17:01:08.954Z,2.47
2019-04-03T17:03:38.668Z,3.10
2019-04-03T17:06:08.218Z,2.77
2019-04-03T17:08:37.602Z,2.07
2019-04-03T17:11:07.336Z,2.53
2019-04-03T17:13:36.687Z,1.93
2019-04-03T17:16:06.977Z,2.30
2019-04-03T17:18:37.289Z,2.60
2019-04-03T17:21:06.758Z,2.07
2019-04-03T17:23:36.162Z,3.37
2019-04-03T17:26:09.323Z,2.97
2019-04-03T17:28:39.345Z,2.70
2019-04-03T17:31:07.667Z,2.30
2019-04-03T17:33:37.038Z,2.73
2019-04-03T17:36:06.762Z,2.03
2019-04-03T17:38:36.727Z,2.07
2019-04-03T17:41:07.024Z,3.00
2019-04-03T17:43:36.750Z,3.67
2019-04-03T17:46:06.338Z,3.03
2019-04-03T17:48:35.669Z,3.40
2019-04-03T17:51:07.257Z,2.27
2019-04-03T17:53:37.156Z,2.70
2019-04-03T17:56:06.674Z,2.40
2019-04-03T17:58:36.038Z,2.23
2019-04-03T18:01:05.373Z,3.70
2019-04-03T18:03:34.757Z,4.17
2019-04-03T18:06:04.388Z,3.03
2019-04-03T18:08:33.825Z,2.40
2019-04-03T18:11:04.670Z,3.10
2019-04-03T18:13:34.108Z,2.77
2019-04-03T18:16:03.562Z,2.97
2019-04-03T18:18:33.422Z,2.63
2019-04-03T18:21:03.586Z,3.03
2019-04-03T18:23:33.033Z,2.77
2019-04-03T18:26:02.434Z,4.43
2019-04-03T18:28:31.819Z,5.07
2019-04-03T18:31:03.478Z,3.80
2019-04-03T18:33:32.815Z,2.80
2019-04-03T18:36:02.913Z,3.00
2019-04-03T18:38:32.330Z,2.90
2019-04-03T18:41:04.105Z,2.17
2019-04-03T18:43:33.738Z,3.17
2019-04-03T18:46:03.118Z,2.83
2019-04-03T18:48:32.546Z,2.83
2019-04-03T18:51:05.664Z,3.10
2019-04-03T18:53:34.087Z,2.97
2019-04-03T18:56:03.723Z,2.67
2019-04-03T18:58:33.126Z,2.47
2019-04-03T19:01:07.181Z,2.43
2019-04-03T19:03:37.001Z,2.20
2019-04-03T19:06:06.635Z,2.37
2019-04-03T19:08:36.022Z,2.47
2019-04-03T19:11:09.430Z,2.50
2019-04-03T19:13:36.659Z,3.07
2019-04-03T19:16:08.167Z,2.33
2019-04-03T19:18:37.202Z,3.50
2019-04-03T19:21:06.658Z,2.93
2019-04-03T19:23:36.078Z,2.33
2019-04-03T19:26:05.431Z,1.70
2019-04-03T19:28:35.049Z,1.53
2019-04-03T19:31:04.485Z,1.93
2019-04-03T19:33:33.863Z,2.07
2019-04-03T19:36:03.178Z,2.30
2019-04-03T19:38:33.882Z,2.00
2019-04-03T19:41:03.804Z,2.27
2019-04-03T19:43:33.224Z,1.90
2019-04-03T19:46:02.625Z,1.83
2019-04-03T19:48:32.027Z,1.70
2019-04-03T19:51:03.376Z,1.73
2019-04-03T19:53:32.469Z,2.23
2019-04-03T19:56:01.897Z,2.50
2019-04-03T19:58:31.309Z,1.87
2019-04-03T20:01:03.436Z,2.47
2019-04-03T20:03:31.821Z,1.87
2019-04-03T20:06:01.146Z,2.07
2019-04-03T20:08:30.706Z,1.80
2019-04-03T20:11:00.026Z,2.03
2019-04-03T20:13:29.457Z,1.80
2019-04-03T20:15:58.834Z,1.40
2019-04-03T20:18:28.213Z,1.87
2019-04-03T20:20:57.646Z,1.70
2019-04-03T20:23:29.975Z,1.83
2019-04-03T20:25:58.063Z,1.60
2019-04-03T20:28:27.574Z,2.20
2019-04-03T20:30:57.014Z,1.77
2019-04-03T20:33:26.513Z,2.10
2019-04-03T20:35:56.245Z,2.30
2019-04-03T20:38:27.316Z,2.07
2019-04-03T20:40:56.648Z,2.23
2019-04-03T20:43:26.082Z,1.60
2019-04-03T20:45:55.462Z,1.83
2019-04-03T20:48:27.999Z,1.87
2019-04-03T20:50:55.901Z,1.83
2019-04-03T20:53:25.298Z,1.70
2019-04-03T20:55:56.010Z,1.73
2019-04-03T20:58:25.714Z,2.10
2019-04-03T21:01:06.187Z,1.57
2019-04-03T21:03:26.198Z,1.70
2019-04-03T21:05:55.521Z,2.33
2019-04-03T21:08:26.611Z,1.87
2019-04-03T21:10:55.913Z,1.90
2019-04-03T21:13:25.340Z,1.83
2019-04-03T21:15:54.666Z,1.80
2019-04-03T21:18:24.058Z,1.80
2019-04-03T21:20:54.762Z,1.67
2019-04-03T21:23:24.770Z,1.73
2019-04-03T21:25:54.085Z,2.57
2019-04-03T21:28:23.489Z,3.13
2019-04-03T21:30:53.088Z,2.10
2019-04-03T21:33:23.892Z,1.90
2019-04-03T21:35:53.301Z,1.47
2019-04-03T21:38:22.807Z,1.80
2019-04-03T21:40:52.199Z,2.00
2019-04-03T21:43:21.654Z,1.50
2019-04-03T21:45:50.975Z,1.70
2019-04-03T21:48:20.332Z,1.70
2019-04-03T21:50:50.355Z,2.27
2019-04-03T21:53:19.861Z,2.07
2019-04-03T21:55:49.254Z,1.90
2019-04-03T21:58:18.609Z,1.60
2019-04-03T22:01:20.634Z,1.97
2019-04-03T22:03:51.497Z,2.50
2019-04-03T22:06:21.069Z,1.87
2019-04-03T22:08:51.625Z,1.90
2019-04-03T22:11:21.305Z,2.20
2019-04-03T22:13:53.760Z,2.10
2019-04-03T22:16:23.151Z,1.87
2019-04-03T22:18:52.956Z,1.63
2019-04-03T22:21:23.615Z,2.30
2019-04-03T22:23:53.027Z,1.57
2019-04-03T22:26:22.341Z,2.40
2019-04-03T22:28:51.705Z,2.00
2019-04-03T22:31:22.848Z,1.90
2019-04-03T22:33:52.182Z,2.53
2019-04-03T22:36:21.590Z,2.27
2019-04-03T22:38:51.005Z,2.10
2019-04-03T22:41:20.352Z,2.23
2019-04-03T22:43:49.762Z,2.13
2019-04-03T22:46:21.727Z,1.90
2019-04-03T22:48:50.225Z,2.23
2019-04-03T22:51:19.569Z,2.83
2019-04-03T22:53:48.981Z,1.90
2019-04-03T22:56:18.307Z,2.27
2019-04-03T22:58:47.765Z,2.33
2019-04-03T23:01:17.170Z,2.17
2019-04-03T23:03:49.152Z,2.20
2019-04-03T23:06:18.748Z,2.50
2019-04-03T23:08:48.727Z,1.67
2019-04-03T23:11:18.138Z,2.00
2019-04-03T23:13:47.729Z,2.17
2019-04-03T23:16:17.216Z,2.63
2019-04-03T23:18:46.856Z,2.40
2019-04-03T23:21:16.990Z,2.53
2019-04-03T23:23:46.461Z,2.53
2019-04-03T23:26:15.910Z,2.00
2019-04-03T23:28:45.365Z,2.37
2019-04-03T23:31:14.772Z,2.30
2019-04-03T23:33:44.249Z,2.53
2019-04-03T23:36:14.401Z,2.20
2019-04-03T23:38:43.769Z,2.67
2019-04-03T23:41:13.283Z,2.23
2019-04-03T23:43:42.710Z,2.10
2019-04-03T23:46:12.826Z,2.67
2019-04-03T23:48:43.222Z,1.80
2019-04-03T23:51:22.625Z,2.17
2019-04-03T23:53:43.908Z,2.73
2019-04-03T23:56:13.329Z,2.53
2019-04-03T23:58:42.771Z,3.00
